createdAt,value
2022-08-10T00:04:27.628Z,99228.75
2022-08-10T00:09:50.802Z,99224.91
2022-08-10T00:15:52.432Z,99228.25
2022-08-10T00:20:57.645Z,99228.84
2022-08-10T00:26:19.375Z,99236.03
2022-08-10T00:31:57.865Z,99234.13
2022-08-10T00:37:20.651Z,99232.34
2022-08-10T00:42:42.538Z,99232.78
2022-08-10T00:48:04.785Z,99226.34
2022-08-10T00:53:28.121Z,99228.72
2022-08-10T00:58:50.085Z,99221.84
2022-08-10T01:04:36.427Z,99226.66
2022-08-10T01:10:12.236Z,99224.13
2022-08-10T01:15:43.386Z,99223.16
2022-08-10T01:21:15.519Z,99226.97
2022-08-10T01:26:48.246Z,99230.00
2022-08-10T01:32:14.480Z,99231.09
2022-08-10T01:37:43.641Z,99232.78
2022-08-10T01:43:16.111Z,99234.75
2022-08-10T01:48:47.532Z,99232.94
2022-08-10T01:54:13.433Z,99238.38
2022-08-10T01:59:38.969Z,99244.13
2022-08-10T02:05:03.283Z,99240.75
2022-08-10T02:10:27.405Z,99241.75
2022-08-10T02:16:01.164Z,99236.16
2022-08-10T02:21:25.697Z,99245.56
2022-08-10T02:26:49.007Z,99238.13
2022-08-10T02:32:36.083Z,99234.75
2022-08-10T02:38:03.358Z,99234.91
2022-08-10T02:45:26.835Z,99237.13
2022-08-10T02:49:29.066Z,99234.06
2022-08-10T02:55:04.650Z,99247.06
2022-08-10T03:00:47.256Z,99246.22
2022-08-10T03:06:14.129Z,99236.38
2022-08-10T03:12:36.328Z,99239.44
2022-08-10T03:17:21.779Z,99247.81
2022-08-10T03:22:45.014Z,99241.22
2022-08-10T03:28:07.587Z,99235.09
2022-08-10T03:33:33.125Z,99246.97
2022-08-10T03:38:55.264Z,99251.41
2022-08-10T03:44:24.884Z,99246.69
2022-08-10T03:49:48.704Z,99252.13
2022-08-10T03:55:12.070Z,99251.00
2022-08-10T04:00:55.794Z,99252.63
2022-08-10T04:06:17.730Z,99251.09
2022-08-10T04:11:40.800Z,99256.69
2022-08-10T04:17:02.625Z,99265.34
2022-08-10T04:22:29.490Z,99273.13
2022-08-10T04:27:52.354Z,99266.16
2022-08-10T04:33:16.866Z,99276.56
2022-08-10T04:38:41.600Z,99271.16
2022-08-10T04:44:03.708Z,99276.84
2022-08-10T04:49:55.679Z,99280.16
2022-08-10T04:55:07.744Z,99281.72
2022-08-10T05:00:29.601Z,99283.38
2022-08-10T05:05:51.381Z,99278.41
2022-08-10T05:11:24.177Z,99279.50
2022-08-10T05:16:46.053Z,99283.03
2022-08-10T05:22:08.607Z,99284.03
2022-08-10T05:27:30.451Z,99289.06
2022-08-10T05:32:57.872Z,99284.47
2022-08-10T05:38:23.179Z,99286.72
2022-08-10T05:43:45.107Z,99287.16
2022-08-10T05:49:06.922Z,99294.72
2022-08-10T05:54:28.828Z,99294.50
2022-08-10T06:00:10.978Z,99291.59
2022-08-10T06:05:45.031Z,99286.69
2022-08-10T06:12:28.683Z,99291.59
2022-08-10T06:16:50.296Z,99283.91
2022-08-10T06:22:12.161Z,99289.97
2022-08-10T06:27:36.192Z,99287.34
2022-08-10T06:32:59.893Z,99292.25
2022-08-10T06:38:23.904Z,99285.56
2022-08-10T06:43:50.023Z,99286.97
2022-08-10T06:49:13.493Z,99287.69
2022-08-10T06:54:36.343Z,99285.84
2022-08-10T07:00:01.057Z,99289.63
2022-08-10T07:05:27.368Z,99284.97
2022-08-10T07:10:51.586Z,99282.91
2022-08-10T07:16:14.504Z,99287.94
2022-08-10T07:21:39.760Z,99283.69
2022-08-10T07:27:03.850Z,99277.94
2022-08-10T07:32:26.862Z,99272.84
2022-08-10T07:37:51.862Z,99273.22
2022-08-10T07:43:16.019Z,99268.22
2022-08-10T07:48:46.004Z,99273.19
2022-08-10T07:54:15.603Z,99257.16
2022-08-10T07:59:48.389Z,99270.38
2022-08-10T08:05:13.651Z,99264.50
2022-08-10T08:10:56.119Z,99256.13
2022-08-10T08:16:22.151Z,99255.59
2022-08-10T08:24:10.318Z,99261.47
2022-08-10T08:27:28.378Z,99258.06
2022-08-10T08:32:51.052Z,99262.66
2022-08-10T08:38:29.818Z,99263.31
2022-08-10T08:44:29.512Z,99254.56
2022-08-10T08:50:27.656Z,99260.84
2022-08-10T08:56:05.829Z,99239.50
2022-08-10T09:01:58.826Z,99238.22
2022-08-10T09:08:00.910Z,99237.28
2022-08-10T09:13:39.383Z,99236.34
2022-08-10T09:19:19.671Z,99226.13
2022-08-10T09:25:02.785Z,99228.84
2022-08-10T09:31:21.045Z,99219.19
2022-08-10T09:36:50.326Z,99221.75
2022-08-10T09:42:23.525Z,99214.25
2022-08-10T09:48:04.048Z,99204.25
2022-08-10T09:53:55.038Z,99205.25
2022-08-10T10:00:01.285Z,99198.59
2022-08-10T10:05:57.932Z,99199.09
2022-08-10T10:11:37.827Z,99196.63
2022-08-10T10:17:47.338Z,99193.31
2022-08-10T10:23:17.877Z,99185.31
2022-08-10T10:34:59.308Z,99183.78
2022-08-10T10:40:25.562Z,99184.63
2022-08-10T10:45:56.125Z,99182.28
2022-08-10T10:51:37.947Z,99184.44
2022-08-10T10:57:22.623Z,99169.91
2022-08-10T11:03:36.563Z,99161.06
2022-08-10T11:09:05.115Z,99163.69
2022-08-10T11:14:41.236Z,99147.13
2022-08-10T11:20:17.926Z,99142.59
2022-08-10T11:25:44.931Z,99155.78
2022-08-10T11:31:19.614Z,99159.41
2022-08-10T11:37:13.832Z,99151.47
2022-08-10T11:42:51.207Z,99136.22
2022-08-10T11:48:52.898Z,99147.41
2022-08-10T11:54:29.225Z,99146.38
2022-08-10T11:59:58.076Z,99144.31
2022-08-10T12:05:52.600Z,99138.44
2022-08-10T12:11:24.617Z,99130.16
2022-08-10T12:16:49.965Z,99131.59
2022-08-10T12:22:27.978Z,99128.00
2022-08-10T12:27:56.535Z,99129.66
2022-08-10T12:33:23.329Z,99122.94
2022-08-10T12:39:04.495Z,99117.75
2022-08-10T12:44:44.431Z,99108.34
2022-08-10T12:50:32.953Z,99096.75
2022-08-10T12:55:58.110Z,99092.88
2022-08-10T13:01:24.346Z,99096.28
2022-08-10T13:06:50.008Z,99083.53
2022-08-10T13:12:37.150Z,99085.44
2022-08-10T13:18:01.052Z,99086.38
2022-08-10T13:23:27.039Z,99080.13
2022-08-10T13:28:54.063Z,99057.72
2022-08-10T13:34:43.652Z,99050.31
2022-08-10T13:40:11.671Z,99056.91
2022-08-10T13:45:39.162Z,99049.88
2022-08-10T13:51:03.468Z,99043.47
2022-08-10T13:56:27.678Z,99029.53
2022-08-10T14:01:52.149Z,99034.03
2022-08-10T14:07:16.106Z,99024.59
2022-08-10T14:12:44.397Z,99021.63
2022-08-10T14:18:08.668Z,99027.56
2022-08-10T14:23:32.284Z,99018.94
2022-08-10T14:29:18.849Z,99005.84
2022-08-10T14:36:16.050Z,98999.25
2022-08-10T14:40:35.925Z,99006.72
2022-08-10T14:46:03.473Z,99002.34
2022-08-10T14:51:43.912Z,99000.03
2022-08-10T14:57:11.896Z,98993.38
2022-08-10T15:02:55.972Z,98993.13
2022-08-10T15:08:24.553Z,98984.50
2022-08-10T15:14:14.866Z,98984.88
2022-08-10T15:20:02.461Z,98980.81
2022-08-10T15:25:24.682Z,98979.41
2022-08-10T15:30:51.597Z,98976.09
2022-08-10T15:36:38.299Z,98973.03
2022-08-10T15:42:04.754Z,98974.06
2022-08-10T15:47:46.271Z,98960.53
2022-08-10T15:53:30.558Z,98963.94
2022-08-10T15:58:56.043Z,98963.09
2022-08-10T16:04:31.861Z,98960.16
2022-08-10T16:10:23.853Z,98951.84
2022-08-10T16:15:50.712Z,98941.09
2022-08-10T16:21:24.306Z,98948.69
2022-08-10T16:26:51.205Z,98940.81
2022-08-10T16:32:14.474Z,98936.84
2022-08-10T16:37:58.308Z,98932.50
2022-08-10T16:43:23.671Z,98929.81
2022-08-10T16:48:50.920Z,98931.00
2022-08-10T16:54:17.117Z,98929.41
2022-08-10T16:59:40.793Z,98925.22
2022-08-10T17:05:04.247Z,98924.91
2022-08-10T17:10:31.065Z,98920.09
2022-08-10T17:16:00.674Z,98914.63
2022-08-10T17:21:27.755Z,98917.53
2022-08-10T17:26:51.054Z,98918.34
2022-08-10T17:32:33.902Z,98917.97
2022-08-10T17:38:10.758Z,98915.19
2022-08-10T17:44:01.467Z,98922.81
2022-08-10T17:49:19.322Z,98917.72
2022-08-10T17:54:46.965Z,98914.75
2022-08-10T18:00:14.489Z,98912.59
2022-08-10T18:05:36.480Z,98920.19
2022-08-10T18:10:58.868Z,98928.78
2022-08-10T18:16:26.059Z,98931.34
2022-08-10T18:21:48.690Z,98930.91
2022-08-10T18:27:13.679Z,98936.53
2022-08-10T18:32:39.632Z,98936.75
2022-08-10T18:38:02.994Z,98943.19
2022-08-10T18:44:07.482Z,98934.41
2022-08-10T18:49:33.591Z,98939.03
2022-08-10T18:55:03.660Z,98953.38
2022-08-10T19:01:33.958Z,98959.84
2022-08-10T19:07:07.601Z,98962.56
2022-08-10T19:12:39.191Z,98962.31
2022-08-10T19:18:19.831Z,98980.72
2022-08-10T19:23:51.310Z,98984.78
2022-08-10T19:30:12.458Z,98992.00
2022-08-10T19:35:28.476Z,99001.72
2022-08-10T19:41:08.433Z,98994.25
2022-08-10T19:46:41.035Z,98993.91
2022-08-10T19:52:11.375Z,98993.09
2022-08-10T19:57:44.004Z,98999.06
2022-08-10T20:03:46.002Z,99007.94
2022-08-10T20:09:38.070Z,99006.44
2022-08-10T20:15:26.630Z,99014.28
2022-08-10T20:20:51.562Z,99011.97
2022-08-10T20:26:40.870Z,99008.28
2022-08-10T20:32:37.614Z,99019.31
2022-08-10T20:38:09.316Z,99016.28
2022-08-10T20:44:00.135Z,99009.09
2022-08-10T20:50:07.215Z,99016.44
2022-08-10T20:55:51.909Z,99018.94
2022-08-10T21:02:05.994Z,99012.69
2022-08-10T21:07:43.970Z,99009.53
2022-08-10T21:13:29.743Z,98998.69
2022-08-10T21:19:12.837Z,98996.69
2022-08-10T21:24:52.287Z,99001.16
2022-08-10T21:30:20.642Z,99009.50
2022-08-10T21:35:49.232Z,99005.97
2022-08-10T21:41:56.519Z,99008.78
2022-08-10T21:48:07.276Z,99004.25
2022-08-10T21:54:05.393Z,99016.59
2022-08-10T22:00:00.735Z,99008.72
2022-08-10T22:05:54.388Z,99012.88
2022-08-10T22:11:42.843Z,99016.72
2022-08-10T22:18:03.294Z,99025.22
2022-08-10T22:23:41.373Z,99012.63
2022-08-10T22:29:42.564Z,99021.06
2022-08-10T22:36:00.595Z,99015.25
2022-08-10T22:41:53.125Z,99023.16
2022-08-10T22:47:38.353Z,99026.75
2022-08-10T22:53:08.676Z,99030.72
2022-08-10T22:58:39.479Z,99022.34
2022-08-10T23:04:08.061Z,99022.50
2022-08-10T23:09:32.908Z,99019.59
2022-08-10T23:15:16.474Z,99023.53
2022-08-10T23:20:41.203Z,99025.50
2022-08-10T23:26:06.233Z,99021.41
2022-08-10T23:31:59.210Z,99021.03
2022-08-10T23:37:15.281Z,99018.38
2022-08-10T23:42:40.285Z,99015.94
2022-08-10T23:48:02.939Z,99006.66
2022-08-10T23:53:27.907Z,99010.84
2022-08-10T23:58:57.073Z,99013.28
